sensor_id;sensor_type;location;lat;lon;timestamp;P1;durP1;ratioP1;P2;durP2;ratioP2
21352;SDS011;10834;52.268;6.770;2022-07-23T00:01:08;0.93;;;0.93;;
21352;SDS011;10834;52.268;6.770;2022-07-23T00:03:54;1.42;;;1.17;;
21352;SDS011;10834;52.268;6.770;2022-07-23T00:06:41;1.33;;;0.85;;
21352;SDS011;10834;52.268;6.770;2022-07-23T00:09:27;1.33;;;0.95;;
21352;SDS011;10834;52.268;6.770;2022-07-23T00:12:16;0.98;;;0.93;;
21352;SDS011;10834;52.268;6.770;2022-07-23T00:15:03;0.82;;;0.82;;
21352;SDS011;10834;52.268;6.770;2022-07-23T00:17:50;1.52;;;0.82;;
21352;SDS011;10834;52.268;6.770;2022-07-23T00:20:36;1.27;;;0.93;;
21352;SDS011;10834;52.268;6.770;2022-07-23T00:23:22;0.95;;;0.90;;
21352;SDS011;10834;52.268;6.770;2022-07-23T00:26:10;1.10;;;1.00;;
21352;SDS011;10834;52.268;6.770;2022-07-23T00:28:56;1.00;;;1.00;;
21352;SDS011;10834;52.268;6.770;2022-07-23T00:31:43;0.90;;;0.90;;
21352;SDS011;10834;52.268;6.770;2022-07-23T00:34:29;0.70;;;0.70;;
21352;SDS011;10834;52.268;6.770;2022-07-23T00:37:15;0.80;;;0.80;;
21352;SDS011;10834;52.268;6.770;2022-07-23T00:40:01;1.10;;;1.08;;
21352;SDS011;10834;52.268;6.770;2022-07-23T00:42:48;0.90;;;0.75;;
21352;SDS011;10834;52.268;6.770;2022-07-23T00:45:34;0.95;;;0.80;;
21352;SDS011;10834;52.268;6.770;2022-07-23T00:48:20;0.90;;;0.70;;
21352;SDS011;10834;52.268;6.770;2022-07-23T00:51:06;0.73;;;0.73;;
21352;SDS011;10834;52.268;6.770;2022-07-23T00:53:52;1.20;;;0.80;;
21352;SDS011;10834;52.268;6.770;2022-07-23T00:56:38;1.02;;;0.80;;
21352;SDS011;10834;52.268;6.770;2022-07-23T00:59:26;1.02;;;0.80;;
21352;SDS011;10834;52.268;6.770;2022-07-23T01:02:12;1.00;;;0.90;;
21352;SDS011;10834;52.268;6.770;2022-07-23T01:04:59;0.88;;;0.60;;
21352;SDS011;10834;52.268;6.770;2022-07-23T01:07:45;1.20;;;0.90;;
21352;SDS011;10834;52.268;6.770;2022-07-23T01:10:31;1.08;;;0.82;;
21352;SDS011;10834;52.268;6.770;2022-07-23T01:13:18;1.35;;;0.93;;
21352;SDS011;10834;52.268;6.770;2022-07-23T01:16:04;1.20;;;1.10;;
21352;SDS011;10834;52.268;6.770;2022-07-23T01:18:50;1.08;;;0.63;;
21352;SDS011;10834;52.268;6.770;2022-07-23T01:21:37;2.10;;;1.00;;
21352;SDS011;10834;52.268;6.770;2022-07-23T01:24:28;0.93;;;0.93;;
21352;SDS011;10834;52.268;6.770;2022-07-23T01:27:15;1.00;;;0.90;;
21352;SDS011;10834;52.268;6.770;2022-07-23T01:30:03;0.85;;;0.70;;
21352;SDS011;10834;52.268;6.770;2022-07-23T01:32:49;2.03;;;0.88;;
21352;SDS011;10834;52.268;6.770;2022-07-23T01:35:35;1.02;;;1.02;;
21352;SDS011;10834;52.268;6.770;2022-07-23T01:38:21;1.33;;;1.00;;
21352;SDS011;10834;52.268;6.770;2022-07-23T01:41:07;0.85;;;0.70;;
21352;SDS011;10834;52.268;6.770;2022-07-23T01:43:54;2.15;;;1.35;;
21352;SDS011;10834;52.268;6.770;2022-07-23T01:46:40;1.42;;;1.00;;
21352;SDS011;10834;52.268;6.770;2022-07-23T01:49:26;0.85;;;0.85;;
21352;SDS011;10834;52.268;6.770;2022-07-23T01:52:12;1.00;;;0.80;;
21352;SDS011;10834;52.268;6.770;2022-07-23T01:54:58;1.15;;;1.05;;
21352;SDS011;10834;52.268;6.770;2022-07-23T01:57:44;1.05;;;0.90;;
21352;SDS011;10834;52.268;6.770;2022-07-23T02:00:31;1.00;;;1.00;;
21352;SDS011;10834;52.268;6.770;2022-07-23T02:03:17;0.63;;;0.63;;
21352;SDS011;10834;52.268;6.770;2022-07-23T02:06:03;0.93;;;0.93;;
21352;SDS011;10834;52.268;6.770;2022-07-23T02:08:49;0.88;;;0.88;;
21352;SDS011;10834;52.268;6.770;2022-07-23T02:11:35;0.90;;;0.90;;
21352;SDS011;10834;52.268;6.770;2022-07-23T02:14:21;0.85;;;0.85;;
21352;SDS011;10834;52.268;6.770;2022-07-23T02:17:08;1.10;;;1.00;;
21352;SDS011;10834;52.268;6.770;2022-07-23T02:19:54;0.70;;;0.70;;
21352;SDS011;10834;52.268;6.770;2022-07-23T02:22:40;1.45;;;0.90;;
21352;SDS011;10834;52.268;6.770;2022-07-23T02:25:26;0.80;;;0.73;;
21352;SDS011;10834;52.268;6.770;2022-07-23T02:28:12;0.68;;;0.68;;
21352;SDS011;10834;52.268;6.770;2022-07-23T02:30:58;1.35;;;0.90;;
21352;SDS011;10834;52.268;6.770;2022-07-23T02:33:44;1.02;;;0.93;;
21352;SDS011;10834;52.268;6.770;2022-07-23T02:36:30;0.98;;;0.82;;
21352;SDS011;10834;52.268;6.770;2022-07-23T02:39:16;0.82;;;0.82;;
21352;SDS011;10834;52.268;6.770;2022-07-23T02:42:02;0.70;;;0.70;;
21352;SDS011;10834;52.268;6.770;2022-07-23T02:44:49;0.80;;;0.75;;
21352;SDS011;10834;52.268;6.770;2022-07-23T02:47:36;0.95;;;0.77;;
21352;SDS011;10834;52.268;6.770;2022-07-23T02:50:22;1.00;;;1.00;;
21352;SDS011;10834;52.268;6.770;2022-07-23T02:53:08;0.60;;;0.60;;
21352;SDS011;10834;52.268;6.770;2022-07-23T02:55:54;0.73;;;0.73;;
21352;SDS011;10834;52.268;6.770;2022-07-23T02:58:40;1.00;;;0.90;;
21352;SDS011;10834;52.268;6.770;2022-07-23T03:01:26;0.95;;;0.90;;
21352;SDS011;10834;52.268;6.770;2022-07-23T03:04:13;1.05;;;0.95;;
21352;SDS011;10834;52.268;6.770;2022-07-23T03:06:59;0.85;;;0.85;;
21352;SDS011;10834;52.268;6.770;2022-07-23T03:09:45;0.85;;;0.80;;
21352;SDS011;10834;52.268;6.770;2022-07-23T03:12:31;0.80;;;0.80;;
21352;SDS011;10834;52.268;6.770;2022-07-23T03:15:17;0.70;;;0.70;;
21352;SDS011;10834;52.268;6.770;2022-07-23T03:18:04;1.23;;;0.90;;
21352;SDS011;10834;52.268;6.770;2022-07-23T03:20:50;0.75;;;0.75;;
21352;SDS011;10834;52.268;6.770;2022-07-23T03:23:36;4.53;;;1.27;;
21352;SDS011;10834;52.268;6.770;2022-07-23T03:26:22;0.82;;;0.73;;
21352;SDS011;10834;52.268;6.770;2022-07-23T03:29:10;1.40;;;0.80;;
21352;SDS011;10834;52.268;6.770;2022-07-23T03:31:57;0.85;;;0.60;;
21352;SDS011;10834;52.268;6.770;2022-07-23T03:34:43;0.80;;;0.80;;
21352;SDS011;10834;52.268;6.770;2022-07-23T03:37:29;0.75;;;0.75;;
21352;SDS011;10834;52.268;6.770;2022-07-23T03:40:15;0.90;;;0.75;;
21352;SDS011;10834;52.268;6.770;2022-07-23T03:43:01;1.70;;;1.00;;
21352;SDS011;10834;52.268;6.770;2022-07-23T03:45:47;0.73;;;0.70;;
21352;SDS011;10834;52.268;6.770;2022-07-23T03:48:34;0.80;;;0.80;;
21352;SDS011;10834;52.268;6.770;2022-07-23T03:51:20;0.82;;;0.70;;
21352;SDS011;10834;52.268;6.770;2022-07-23T03:54:06;0.80;;;0.80;;
21352;SDS011;10834;52.268;6.770;2022-07-23T03:56:52;0.77;;;0.77;;
21352;SDS011;10834;52.268;6.770;2022-07-23T03:59:38;0.90;;;0.90;;
21352;SDS011;10834;52.268;6.770;2022-07-23T04:02:24;1.00;;;1.00;;
21352;SDS011;10834;52.268;6.770;2022-07-23T04:05:10;1.00;;;0.90;;
21352;SDS011;10834;52.268;6.770;2022-07-23T04:07:56;0.80;;;0.80;;
21352;SDS011;10834;52.268;6.770;2022-07-23T04:10:42;0.90;;;0.90;;
21352;SDS011;10834;52.268;6.770;2022-07-23T04:13:28;1.10;;;0.80;;
21352;SDS011;10834;52.268;6.770;2022-07-23T04:16:15;0.60;;;0.60;;
21352;SDS011;10834;52.268;6.770;2022-07-23T04:19:01;0.93;;;0.90;;
21352;SDS011;10834;52.268;6.770;2022-07-23T04:21:49;0.98;;;0.95;;
21352;SDS011;10834;52.268;6.770;2022-07-23T04:24:36;0.68;;;0.68;;
21352;SDS011;10834;52.268;6.770;2022-07-23T04:27:23;1.27;;;0.80;;
21352;SDS011;10834;52.268;6.770;2022-07-23T04:30:09;0.82;;;0.50;;
21352;SDS011;10834;52.268;6.770;2022-07-23T04:32:56;1.58;;;0.80;;
21352;SDS011;10834;52.268;6.770;2022-07-23T04:35:42;0.80;;;0.75;;
21352;SDS011;10834;52.268;6.770;2022-07-23T04:38:28;0.85;;;0.85;;
21352;SDS011;10834;52.268;6.770;2022-07-23T04:41:14;1.10;;;1.00;;
21352;SDS011;10834;52.268;6.770;2022-07-23T04:44:00;0.90;;;0.90;;
21352;SDS011;10834;52.268;6.770;2022-07-23T04:46:47;0.80;;;0.80;;
21352;SDS011;10834;52.268;6.770;2022-07-23T04:49:33;2.05;;;0.80;;
21352;SDS011;10834;52.268;6.770;2022-07-23T04:52:19;0.80;;;0.80;;
21352;SDS011;10834;52.268;6.770;2022-07-23T04:55:05;0.85;;;0.85;;
21352;SDS011;10834;52.268;6.770;2022-07-23T04:57:51;0.70;;;0.70;;
21352;SDS011;10834;52.268;6.770;2022-07-23T05:00:37;0.60;;;0.60;;
21352;SDS011;10834;52.268;6.770;2022-07-23T05:03:23;0.95;;;0.65;;
21352;SDS011;10834;52.268;6.770;2022-07-23T05:06:09;0.68;;;0.68;;
21352;SDS011;10834;52.268;6.770;2022-07-23T05:08:55;1.02;;;0.88;;
21352;SDS011;10834;52.268;6.770;2022-07-23T05:11:41;0.88;;;0.88;;
21352;SDS011;10834;52.268;6.770;2022-07-23T05:14:27;0.68;;;0.68;;
21352;SDS011;10834;52.268;6.770;2022-07-23T05:17:13;0.60;;;0.60;;
21352;SDS011;10834;52.268;6.770;2022-07-23T05:19:59;1.90;;;0.80;;
21352;SDS011;10834;52.268;6.770;2022-07-23T05:22:46;0.80;;;0.80;;
21352;SDS011;10834;52.268;6.770;2022-07-23T05:25:32;0.82;;;0.77;;
21352;SDS011;10834;52.268;6.770;2022-07-23T05:28:18;0.65;;;0.65;;
21352;SDS011;10834;52.268;6.770;2022-07-23T05:31:04;0.88;;;0.88;;
21352;SDS011;10834;52.268;6.770;2022-07-23T05:33:50;0.68;;;0.68;;
21352;SDS011;10834;52.268;6.770;2022-07-23T05:36:36;1.23;;;0.80;;
21352;SDS011;10834;52.268;6.770;2022-07-23T05:39:22;0.80;;;0.80;;
21352;SDS011;10834;52.268;6.770;2022-07-23T05:42:08;0.60;;;0.60;;
21352;SDS011;10834;52.268;6.770;2022-07-23T05:44:54;0.70;;;0.70;;
21352;SDS011;10834;52.268;6.770;2022-07-23T05:47:41;1.75;;;0.85;;
21352;SDS011;10834;52.268;6.770;2022-07-23T05:50:28;1.17;;;0.88;;
21352;SDS011;10834;52.268;6.770;2022-07-23T05:53:14;0.82;;;0.82;;
21352;SDS011;10834;52.268;6.770;2022-07-23T05:56:00;0.73;;;0.70;;
21352;SDS011;10834;52.268;6.770;2022-07-23T05:58:46;0.75;;;0.75;;
21352;SDS011;10834;52.268;6.770;2022-07-23T06:01:32;1.23;;;0.90;;
21352;SDS011;10834;52.268;6.770;2022-07-23T06:04:19;0.68;;;0.68;;
21352;SDS011;10834;52.268;6.770;2022-07-23T06:07:05;0.90;;;0.90;;
21352;SDS011;10834;52.268;6.770;2022-07-23T06:09:51;0.70;;;0.70;;
21352;SDS011;10834;52.268;6.770;2022-07-23T06:12:38;0.95;;;0.75;;
21352;SDS011;10834;52.268;6.770;2022-07-23T06:15:24;0.80;;;0.70;;
21352;SDS011;10834;52.268;6.770;2022-07-23T06:18:10;2.10;;;1.20;;
21352;SDS011;10834;52.268;6.770;2022-07-23T06:20:56;0.70;;;0.70;;
21352;SDS011;10834;52.268;6.770;2022-07-23T06:23:42;0.70;;;0.70;;
21352;SDS011;10834;52.268;6.770;2022-07-23T06:26:28;0.75;;;0.65;;
21352;SDS011;10834;52.268;6.770;2022-07-23T06:29:14;0.65;;;0.65;;
21352;SDS011;10834;52.268;6.770;2022-07-23T06:32:00;0.95;;;0.68;;
21352;SDS011;10834;52.268;6.770;2022-07-23T06:34:46;0.55;;;0.55;;
21352;SDS011;10834;52.268;6.770;2022-07-23T06:37:32;0.60;;;0.60;;
21352;SDS011;10834;52.268;6.770;2022-07-23T06:40:18;1.02;;;0.73;;
21352;SDS011;10834;52.268;6.770;2022-07-23T06:43:05;0.63;;;0.63;;
21352;SDS011;10834;52.268;6.770;2022-07-23T06:45:51;0.70;;;0.70;;
21352;SDS011;10834;52.268;6.770;2022-07-23T06:48:37;0.60;;;0.60;;
21352;SDS011;10834;52.268;6.770;2022-07-23T06:51:23;0.60;;;0.60;;
21352;SDS011;10834;52.268;6.770;2022-07-23T06:54:09;0.60;;;0.60;;
21352;SDS011;10834;52.268;6.770;2022-07-23T06:56:55;0.77;;;0.77;;
21352;SDS011;10834;52.268;6.770;2022-07-23T06:59:41;0.80;;;0.80;;
21352;SDS011;10834;52.268;6.770;2022-07-23T07:02:27;0.60;;;0.60;;
21352;SDS011;10834;52.268;6.770;2022-07-23T07:05:13;0.63;;;0.63;;
21352;SDS011;10834;52.268;6.770;2022-07-23T07:08:00;0.60;;;0.60;;
21352;SDS011;10834;52.268;6.770;2022-07-23T07:10:46;1.45;;;0.63;;
21352;SDS011;10834;52.268;6.770;2022-07-23T07:13:32;0.80;;;0.80;;
21352;SDS011;10834;52.268;6.770;2022-07-23T07:16:18;1.23;;;0.63;;
21352;SDS011;10834;52.268;6.770;2022-07-23T07:19:04;0.70;;;0.70;;
21352;SDS011;10834;52.268;6.770;2022-07-23T07:21:50;0.65;;;0.65;;
21352;SDS011;10834;52.268;6.770;2022-07-23T07:24:36;0.80;;;0.80;;
21352;SDS011;10834;52.268;6.770;2022-07-23T07:27:22;0.70;;;0.60;;
21352;SDS011;10834;52.268;6.770;2022-07-23T07:30:08;1.83;;;0.65;;
21352;SDS011;10834;52.268;6.770;2022-07-23T07:32:55;0.73;;;0.50;;
21352;SDS011;10834;52.268;6.770;2022-07-23T07:35:41;1.60;;;0.68;;
21352;SDS011;10834;52.268;6.770;2022-07-23T07:38:27;0.63;;;0.60;;
21352;SDS011;10834;52.268;6.770;2022-07-23T07:41:13;0.82;;;0.60;;
21352;SDS011;10834;52.268;6.770;2022-07-23T07:43:59;0.80;;;0.80;;
21352;SDS011;10834;52.268;6.770;2022-07-23T07:46:45;0.93;;;0.85;;
21352;SDS011;10834;52.268;6.770;2022-07-23T07:49:31;0.50;;;0.50;;
21352;SDS011;10834;52.268;6.770;2022-07-23T07:52:17;0.90;;;0.90;;
21352;SDS011;10834;52.268;6.770;2022-07-23T07:55:04;1.75;;;0.63;;
21352;SDS011;10834;52.268;6.770;2022-07-23T07:57:51;0.95;;;0.70;;
21352;SDS011;10834;52.268;6.770;2022-07-23T08:00:37;0.60;;;0.60;;
21352;SDS011;10834;52.268;6.770;2022-07-23T08:03:23;1.75;;;0.88;;
21352;SDS011;10834;52.268;6.770;2022-07-23T08:06:09;1.30;;;0.98;;
21352;SDS011;10834;52.268;6.770;2022-07-23T08:08:55;1.10;;;1.00;;
21352;SDS011;10834;52.268;6.770;2022-07-23T08:11:41;0.60;;;0.60;;
21352;SDS011;10834;52.268;6.770;2022-07-23T08:14:28;0.63;;;0.63;;
21352;SDS011;10834;52.268;6.770;2022-07-23T08:17:13;0.60;;;0.52;;
21352;SDS011;10834;52.268;6.770;2022-07-23T08:19:59;1.73;;;0.70;;
21352;SDS011;10834;52.268;6.770;2022-07-23T08:25:42;0.80;;;0.80;;
21352;SDS011;10834;52.268;6.770;2022-07-23T08:28:28;2.00;;;1.15;;
21352;SDS011;10834;52.268;6.770;2022-07-23T08:31:18;0.80;;;0.75;;
21352;SDS011;10834;52.268;6.770;2022-07-23T08:34:04;5.53;;;1.30;;
21352;SDS011;10834;52.268;6.770;2022-07-23T08:36:50;1.58;;;1.00;;
21352;SDS011;10834;52.268;6.770;2022-07-23T08:39:36;2.42;;;0.88;;
21352;SDS011;10834;52.268;6.770;2022-07-23T08:42:22;1.88;;;0.93;;
21352;SDS011;10834;52.268;6.770;2022-07-23T08:45:09;1.10;;;0.90;;
21352;SDS011;10834;52.268;6.770;2022-07-23T08:47:56;1.77;;;0.80;;
21352;SDS011;10834;52.268;6.770;2022-07-23T08:50:47;0.93;;;0.82;;
21352;SDS011;10834;52.268;6.770;2022-07-23T08:53:35;0.70;;;0.70;;
21352;SDS011;10834;52.268;6.770;2022-07-23T08:56:22;1.95;;;0.80;;
21352;SDS011;10834;52.268;6.770;2022-07-23T08:59:09;1.15;;;0.82;;
21352;SDS011;10834;52.268;6.770;2022-07-23T09:01:58;0.60;;;0.60;;
21352;SDS011;10834;52.268;6.770;2022-07-23T09:04:46;0.80;;;0.80;;
21352;SDS011;10834;52.268;6.770;2022-07-23T09:07:32;1.15;;;1.05;;
21352;SDS011;10834;52.268;6.770;2022-07-23T09:10:18;0.80;;;0.80;;
21352;SDS011;10834;52.268;6.770;2022-07-23T09:13:04;1.55;;;1.45;;
21352;SDS011;10834;52.268;6.770;2022-07-23T09:15:50;0.85;;;0.85;;
21352;SDS011;10834;52.268;6.770;2022-07-23T09:21:30;0.70;;;0.70;;
21352;SDS011;10834;52.268;6.770;2022-07-23T09:24:17;1.30;;;1.00;;
21352;SDS011;10834;52.268;6.770;2022-07-23T09:27:05;1.75;;;0.93;;
21352;SDS011;10834;52.268;6.770;2022-07-23T09:29:57;1.08;;;0.98;;
21352;SDS011;10834;52.268;6.770;2022-07-23T09:32:43;0.57;;;0.57;;
21352;SDS011;10834;52.268;6.770;2022-07-23T09:38:31;1.35;;;1.00;;
21352;SDS011;10834;52.268;6.770;2022-07-23T09:41:17;0.95;;;0.95;;
21352;SDS011;10834;52.268;6.770;2022-07-23T09:44:07;0.75;;;0.75;;
21352;SDS011;10834;52.268;6.770;2022-07-23T09:46:57;1.35;;;1.00;;
21352;SDS011;10834;52.268;6.770;2022-07-23T09:52:48;1.02;;;0.93;;
21352;SDS011;10834;52.268;6.770;2022-07-23T09:55:35;2.53;;;1.08;;
21352;SDS011;10834;52.268;6.770;2022-07-23T09:58:25;1.05;;;0.98;;
21352;SDS011;10834;52.268;6.770;2022-07-23T10:01:14;0.90;;;0.90;;
21352;SDS011;10834;52.268;6.770;2022-07-23T10:04:01;1.80;;;1.30;;
21352;SDS011;10834;52.268;6.770;2022-07-23T10:06:47;1.17;;;0.80;;
21352;SDS011;10834;52.268;6.770;2022-07-23T10:09:36;0.98;;;0.82;;
21352;SDS011;10834;52.268;6.770;2022-07-23T10:12:23;0.82;;;0.80;;
21352;SDS011;10834;52.268;6.770;2022-07-23T10:15:12;1.15;;;1.00;;
21352;SDS011;10834;52.268;6.770;2022-07-23T10:17:58;0.88;;;0.80;;
21352;SDS011;10834;52.268;6.770;2022-07-23T10:20:44;2.53;;;0.90;;
21352;SDS011;10834;52.268;6.770;2022-07-23T10:23:35;0.75;;;0.75;;
21352;SDS011;10834;52.268;6.770;2022-07-23T10:29:27;0.95;;;0.77;;
21352;SDS011;10834;52.268;6.770;2022-07-23T10:35:52;1.88;;;0.90;;
21352;SDS011;10834;52.268;6.770;2022-07-23T10:41:44;0.90;;;0.90;;
21352;SDS011;10834;52.268;6.770;2022-07-23T10:44:32;0.70;;;0.70;;
21352;SDS011;10834;52.268;6.770;2022-07-23T10:47:26;0.80;;;0.80;;
21352;SDS011;10834;52.268;6.770;2022-07-23T10:50:29;1.23;;;0.98;;
21352;SDS011;10834;52.268;6.770;2022-07-23T10:53:18;0.80;;;0.80;;
21352;SDS011;10834;52.268;6.770;2022-07-23T10:56:04;0.88;;;0.80;;
21352;SDS011;10834;52.268;6.770;2022-07-23T10:58:50;0.85;;;0.70;;
21352;SDS011;10834;52.268;6.770;2022-07-23T11:01:37;0.82;;;0.82;;
21352;SDS011;10834;52.268;6.770;2022-07-23T11:04:47;1.10;;;0.95;;
21352;SDS011;10834;52.268;6.770;2022-07-23T11:07:39;1.02;;;1.00;;
21352;SDS011;10834;52.268;6.770;2022-07-23T11:10:49;0.95;;;0.70;;
21352;SDS011;10834;52.268;6.770;2022-07-23T11:13:48;0.77;;;0.77;;
21352;SDS011;10834;52.268;6.770;2022-07-23T11:16:41;1.02;;;1.00;;
21352;SDS011;10834;52.268;6.770;2022-07-23T11:19:49;2.08;;;1.02;;
21352;SDS011;10834;52.268;6.770;2022-07-23T11:22:55;1.02;;;1.02;;
21352;SDS011;10834;52.268;6.770;2022-07-23T11:25:42;2.42;;;0.80;;
21352;SDS011;10834;52.268;6.770;2022-07-23T11:28:29;0.80;;;0.80;;
21352;SDS011;10834;52.268;6.770;2022-07-23T11:31:19;2.63;;;1.00;;
21352;SDS011;10834;52.268;6.770;2022-07-23T11:37:28;0.77;;;0.77;;
21352;SDS011;10834;52.268;6.770;2022-07-23T11:40:22;0.82;;;0.82;;
21352;SDS011;10834;52.268;6.770;2022-07-23T11:43:09;1.00;;;0.90;;
21352;SDS011;10834;52.268;6.770;2022-07-23T11:45:57;1.05;;;0.95;;
21352;SDS011;10834;52.268;6.770;2022-07-23T11:48:45;1.48;;;1.10;;
21352;SDS011;10834;52.268;6.770;2022-07-23T11:51:31;1.73;;;0.77;;
21352;SDS011;10834;52.268;6.770;2022-07-23T11:54:18;1.38;;;1.00;;
21352;SDS011;10834;52.268;6.770;2022-07-23T11:57:04;1.58;;;0.90;;
21352;SDS011;10834;52.268;6.770;2022-07-23T11:59:51;1.10;;;1.00;;
21352;SDS011;10834;52.268;6.770;2022-07-23T12:02:44;2.00;;;1.05;;
21352;SDS011;10834;52.268;6.770;2022-07-23T12:05:35;1.60;;;1.13;;
21352;SDS011;10834;52.268;6.770;2022-07-23T12:08:22;1.40;;;1.30;;
21352;SDS011;10834;52.268;6.770;2022-07-23T12:11:08;0.98;;;0.98;;
21352;SDS011;10834;52.268;6.770;2022-07-23T12:13:58;1.55;;;1.20;;
21352;SDS011;10834;52.268;6.770;2022-07-23T12:16:44;1.20;;;1.08;;
21352;SDS011;10834;52.268;6.770;2022-07-23T12:19:30;1.13;;;1.10;;
21352;SDS011;10834;52.268;6.770;2022-07-23T12:22:16;1.52;;;1.00;;
21352;SDS011;10834;52.268;6.770;2022-07-23T12:25:04;1.50;;;0.98;;
21352;SDS011;10834;52.268;6.770;2022-07-23T12:27:59;2.53;;;1.13;;
21352;SDS011;10834;52.268;6.770;2022-07-23T12:30:49;1.27;;;0.82;;
21352;SDS011;10834;52.268;6.770;2022-07-23T12:33:37;1.50;;;1.02;;
21352;SDS011;10834;52.268;6.770;2022-07-23T12:36:25;2.28;;;1.20;;
21352;SDS011;10834;52.268;6.770;2022-07-23T12:39:31;1.42;;;1.30;;
21352;SDS011;10834;52.268;6.770;2022-07-23T12:42:17;1.83;;;1.30;;
21352;SDS011;10834;52.268;6.770;2022-07-23T12:47:59;3.25;;;1.27;;
21352;SDS011;10834;52.268;6.770;2022-07-23T12:50:52;1.20;;;1.10;;
21352;SDS011;10834;52.268;6.770;2022-07-23T12:53:48;1.83;;;1.40;;
21352;SDS011;10834;52.268;6.770;2022-07-23T12:56:37;1.05;;;1.00;;
21352;SDS011;10834;52.268;6.770;2022-07-23T12:59:25;1.13;;;1.02;;
21352;SDS011;10834;52.268;6.770;2022-07-23T13:02:16;1.20;;;1.10;;
21352;SDS011;10834;52.268;6.770;2022-07-23T13:05:02;1.50;;;1.40;;
21352;SDS011;10834;52.268;6.770;2022-07-23T13:07:48;0.93;;;0.93;;
21352;SDS011;10834;52.268;6.770;2022-07-23T13:10:34;1.35;;;1.23;;
21352;SDS011;10834;52.268;6.770;2022-07-23T13:13:21;1.30;;;1.20;;
21352;SDS011;10834;52.268;6.770;2022-07-23T13:16:11;1.48;;;1.10;;
21352;SDS011;10834;52.268;6.770;2022-07-23T13:18:58;2.45;;;1.30;;
21352;SDS011;10834;52.268;6.770;2022-07-23T13:21:45;1.33;;;1.20;;
21352;SDS011;10834;52.268;6.770;2022-07-23T13:24:31;1.15;;;1.05;;
21352;SDS011;10834;52.268;6.770;2022-07-23T13:27:17;1.15;;;1.15;;
21352;SDS011;10834;52.268;6.770;2022-07-23T13:30:03;1.60;;;1.02;;
21352;SDS011;10834;52.268;6.770;2022-07-23T13:32:50;1.13;;;1.02;;
21352;SDS011;10834;52.268;6.770;2022-07-23T13:35:37;1.52;;;1.20;;
21352;SDS011;10834;52.268;6.770;2022-07-23T13:38:23;1.17;;;1.10;;
21352;SDS011;10834;52.268;6.770;2022-07-23T13:41:09;1.30;;;1.20;;
21352;SDS011;10834;52.268;6.770;2022-07-23T13:43:55;1.30;;;1.00;;
21352;SDS011;10834;52.268;6.770;2022-07-23T13:46:42;1.05;;;0.95;;
21352;SDS011;10834;52.268;6.770;2022-07-23T13:49:28;1.33;;;1.23;;
21352;SDS011;10834;52.268;6.770;2022-07-23T13:52:14;2.45;;;1.33;;
21352;SDS011;10834;52.268;6.770;2022-07-23T13:55:01;1.05;;;0.85;;
21352;SDS011;10834;52.268;6.770;2022-07-23T13:57:49;1.15;;;1.15;;
21352;SDS011;10834;52.268;6.770;2022-07-23T14:00:37;1.25;;;1.15;;
21352;SDS011;10834;52.268;6.770;2022-07-23T14:03:24;1.10;;;1.08;;
21352;SDS011;10834;52.268;6.770;2022-07-23T14:06:10;1.13;;;1.10;;
21352;SDS011;10834;52.268;6.770;2022-07-23T14:08:57;0.90;;;0.90;;
21352;SDS011;10834;52.268;6.770;2022-07-23T14:11:43;1.20;;;1.17;;
21352;SDS011;10834;52.268;6.770;2022-07-23T14:14:29;1.23;;;1.13;;
21352;SDS011;10834;52.268;6.770;2022-07-23T14:17:15;1.00;;;1.00;;
21352;SDS011;10834;52.268;6.770;2022-07-23T14:20:01;0.85;;;0.85;;
21352;SDS011;10834;52.268;6.770;2022-07-23T14:22:48;0.95;;;0.95;;
21352;SDS011;10834;52.268;6.770;2022-07-23T14:25:34;1.02;;;1.02;;
21352;SDS011;10834;52.268;6.770;2022-07-23T14:28:21;1.00;;;1.00;;
21352;SDS011;10834;52.268;6.770;2022-07-23T14:31:07;1.17;;;1.15;;
21352;SDS011;10834;52.268;6.770;2022-07-23T14:33:53;1.77;;;1.20;;
21352;SDS011;10834;52.268;6.770;2022-07-23T14:36:40;1.10;;;1.10;;
21352;SDS011;10834;52.268;6.770;2022-07-23T14:39:26;1.50;;;1.15;;
21352;SDS011;10834;52.268;6.770;2022-07-23T14:42:12;1.05;;;1.00;;
21352;SDS011;10834;52.268;6.770;2022-07-23T14:45:00;1.38;;;1.27;;
21352;SDS011;10834;52.268;6.770;2022-07-23T14:47:46;1.08;;;1.02;;
21352;SDS011;10834;52.268;6.770;2022-07-23T14:50:32;1.00;;;1.00;;
21352;SDS011;10834;52.268;6.770;2022-07-23T14:53:18;1.13;;;1.02;;
21352;SDS011;10834;52.268;6.770;2022-07-23T14:56:04;1.40;;;1.30;;
21352;SDS011;10834;52.268;6.770;2022-07-23T14:58:50;1.15;;;1.10;;
21352;SDS011;10834;52.268;6.770;2022-07-23T15:01:36;1.10;;;1.00;;
21352;SDS011;10834;52.268;6.770;2022-07-23T15:04:23;1.10;;;1.10;;
21352;SDS011;10834;52.268;6.770;2022-07-23T15:07:09;1.42;;;1.33;;
21352;SDS011;10834;52.268;6.770;2022-07-23T15:09:55;1.17;;;1.13;;
21352;SDS011;10834;52.268;6.770;2022-07-23T15:12:42;1.20;;;1.10;;
21352;SDS011;10834;52.268;6.770;2022-07-23T15:15:28;1.25;;;1.20;;
21352;SDS011;10834;52.268;6.770;2022-07-23T15:18:15;1.38;;;1.27;;
21352;SDS011;10834;52.268;6.770;2022-07-23T15:21:02;1.50;;;1.40;;
21352;SDS011;10834;52.268;6.770;2022-07-23T15:23:49;1.13;;;1.13;;
21352;SDS011;10834;52.268;6.770;2022-07-23T15:26:35;1.65;;;1.55;;
21352;SDS011;10834;52.268;6.770;2022-07-23T15:29:21;1.40;;;1.30;;
21352;SDS011;10834;52.268;6.770;2022-07-23T15:32:07;1.60;;;1.50;;
21352;SDS011;10834;52.268;6.770;2022-07-23T15:34:54;1.63;;;1.52;;
21352;SDS011;10834;52.268;6.770;2022-07-23T15:37:40;1.40;;;1.33;;
21352;SDS011;10834;52.268;6.770;2022-07-23T15:40:27;1.40;;;1.30;;
21352;SDS011;10834;52.268;6.770;2022-07-23T15:43:13;1.40;;;1.30;;
21352;SDS011;10834;52.268;6.770;2022-07-23T15:45:59;1.40;;;1.20;;
21352;SDS011;10834;52.268;6.770;2022-07-23T15:48:45;1.50;;;1.40;;
21352;SDS011;10834;52.268;6.770;2022-07-23T15:51:31;1.20;;;1.10;;
21352;SDS011;10834;52.268;6.770;2022-07-23T15:54:17;2.40;;;1.30;;
21352;SDS011;10834;52.268;6.770;2022-07-23T15:57:04;2.03;;;1.63;;
21352;SDS011;10834;52.268;6.770;2022-07-23T15:59:50;1.83;;;1.50;;
21352;SDS011;10834;52.268;6.770;2022-07-23T16:02:36;1.58;;;1.48;;
21352;SDS011;10834;52.268;6.770;2022-07-23T16:05:22;1.58;;;1.48;;
21352;SDS011;10834;52.268;6.770;2022-07-23T16:08:09;1.67;;;1.58;;
21352;SDS011;10834;52.268;6.770;2022-07-23T16:10:55;1.50;;;1.40;;
21352;SDS011;10834;52.268;6.770;2022-07-23T16:13:44;1.50;;;1.40;;
21352;SDS011;10834;52.268;6.770;2022-07-23T16:16:30;1.42;;;1.33;;
21352;SDS011;10834;52.268;6.770;2022-07-23T16:19:16;1.83;;;1.40;;
21352;SDS011;10834;52.268;6.770;2022-07-23T16:22:02;1.90;;;1.67;;
21352;SDS011;10834;52.268;6.770;2022-07-23T16:24:48;1.33;;;1.23;;
21352;SDS011;10834;52.268;6.770;2022-07-23T16:27:35;2.03;;;1.92;;
21352;SDS011;10834;52.268;6.770;2022-07-23T16:30:22;1.60;;;1.50;;
21352;SDS011;10834;52.268;6.770;2022-07-23T16:33:08;1.50;;;1.40;;
21352;SDS011;10834;52.268;6.770;2022-07-23T16:35:54;1.98;;;1.88;;
21352;SDS011;10834;52.268;6.770;2022-07-23T16:38:40;1.70;;;1.58;;
21352;SDS011;10834;52.268;6.770;2022-07-23T16:41:26;1.75;;;1.60;;
21352;SDS011;10834;52.268;6.770;2022-07-23T16:44:13;1.50;;;1.40;;
21352;SDS011;10834;52.268;6.770;2022-07-23T16:46:59;1.70;;;1.38;;
21352;SDS011;10834;52.268;6.770;2022-07-23T16:49:45;2.08;;;1.92;;
21352;SDS011;10834;52.268;6.770;2022-07-23T16:52:32;1.38;;;1.27;;
21352;SDS011;10834;52.268;6.770;2022-07-23T16:55:18;1.38;;;1.33;;
21352;SDS011;10834;52.268;6.770;2022-07-23T16:58:04;1.63;;;1.52;;
21352;SDS011;10834;52.268;6.770;2022-07-23T17:00:51;1.75;;;1.65;;
21352;SDS011;10834;52.268;6.770;2022-07-23T17:03:37;1.83;;;1.70;;
21352;SDS011;10834;52.268;6.770;2022-07-23T17:06:23;2.13;;;2.03;;
21352;SDS011;10834;52.268;6.770;2022-07-23T17:09:09;1.23;;;1.20;;
21352;SDS011;10834;52.268;6.770;2022-07-23T17:11:55;1.60;;;1.50;;
21352;SDS011;10834;52.268;6.770;2022-07-23T17:14:41;2.22;;;1.50;;